Time;durP1;ratioP1;P1;durP2;ratioP2;P2;SDS_P1;SDS_P2;PMS_P1;PMS_P2;Temp;Humidity;BMP_temperature;BMP_pressure;BME280_temperature;BME280_humidity;BME280_pressure;Samples;Min_cycle;Max_cycle;Signal;HPM_P1;HPM_P2
2022/04/08 00:01:28;;;;;;;;;;;;;;;19.63;36.72;97248.16;4464237;32;33601;-81
2022/04/08 00:03:55;;;;;;;;;;;;;;;19.75;36.53;97249.25;4457396;32;34053;-82
2022/04/08 00:06:23;;;;;;;;;;;;;;;19.68;36.38;97259.25;4437686;32;34294;-82
2022/04/08 00:08:50;;;;;;;;;;;;;;;19.83;36.09;97266.31;4454812;32;35093;-81
2022/04/08 00:11:17;;;;;;;;;;;;;;;19.72;36.31;97273.94;4460649;32;34373;-81
2022/04/08 00:13:45;;;;;;;;;;;;;;;19.46;36.87;97264.78;4451654;32;34305;-81
2022/04/08 00:16:12;;;;;;;;;;;;;;;19.66;36.43;97276.88;4451690;32;34148;-81
2022/04/08 00:18:40;;;;;;;;;;;;;;;19.62;36.43;97263.09;4453511;32;34239;-81
2022/04/08 00:21:07;;;;;;;;;;;;;;;19.83;35.97;97268.94;4461287;32;33327;-82
2022/04/08 00:23:34;;;;;;;;;;;;;;;19.67;36.14;97258.41;4451527;32;35682;-82
2022/04/08 00:26:02;;;;;;;;;;;;;;;19.87;35.82;97265.19;4451756;32;33661;-81
2022/04/08 00:28:29;;;;;;;;;;;;;;;19.73;35.96;97265.09;4452090;32;34129;-82
2022/04/08 00:30:57;;;;;;;;;;;;;;;19.73;36.14;97262.47;4462944;32;32761;-81
2022/04/08 00:33:24;;;;;;;;;;;;;;;19.87;35.83;97252.06;4437751;32;34305;-82
2022/04/08 00:35:51;;;;;;;;;;;;;;;19.62;36.37;97252.56;4451482;32;34471;-82
2022/04/08 00:38:18;;;;;;;;;;;;;;;19.62;36.58;97276.22;4437484;32;35155;-81
2022/04/08 00:40:46;;;;;;;;;;;;;;;19.55;36.71;97276.59;4463383;32;34337;-81
2022/04/08 00:43:13;;;;;;;;;;;;;;;19.63;36.79;97274.44;4451328;32;34083;-82
2022/04/08 00:45:40;;;;;;;;;;;;;;;19.72;36.81;97271.28;4437287;32;33794;-82
2022/04/08 00:48:08;;;;;;;;;;;;;;;19.80;36.70;97260.38;4451391;32;33969;-82
2022/04/08 00:50:36;;;;;;;;;;;;;;;19.70;37.05;97260.03;4448627;32;33766;-82
2022/04/08 00:53:04;;;;;;;;;;;;;;;19.72;37.19;97262.56;4451201;32;34048;-82
2022/04/08 00:55:32;;;;;;;;;;;;;;;19.62;37.51;97277.97;4451258;32;34321;-81
2022/04/08 00:58:00;;;;;;;;;;;;;;;19.40;37.94;97280.91;4461986;32;33745;-81
2022/04/08 01:00:28;;;;;;;;;;;;;;;19.39;38.05;97271.28;4466085;32;34371;-82
2022/04/08 01:02:55;;;;;;;;;;;;;;;19.27;38.20;97267.53;4438706;32;33711;-81
2022/04/08 01:05:22;;;;;;;;;;;;;;;19.50;37.75;97268.09;4455423;32;34156;-82
2022/04/08 01:07:53;;;;;;;;;;;;;;;19.66;37.38;97269.00;4458424;32;34333;-82
2022/04/08 01:10:21;;;;;;;;;;;;;;;19.63;37.54;97274.44;4439054;32;33417;-81
2022/04/08 01:12:50;;;;;;;;;;;;;;;19.74;37.23;97272.09;4452976;32;34231;-82
2022/04/08 01:15:18;;;;;;;;;;;;;;;19.86;36.70;97281.06;4456778;32;34139;-81
2022/04/08 01:17:46;;;;;;;;;;;;;;;19.86;36.49;97287.19;4453247;32;35278;-81
2022/04/08 01:20:13;;;;;;;;;;;;;;;19.89;36.28;97292.28;4453127;32;34484;-82
2022/04/08 01:22:40;;;;;;;;;;;;;;;19.67;36.46;97281.22;4452957;32;34241;-82
2022/04/08 01:25:09;;;;;;;;;;;;;;;19.65;36.61;97298.84;4441663;32;34391;-82
2022/04/08 01:27:37;;;;;;;;;;;;;;;19.55;36.64;97298.47;4453233;32;34957;-81
2022/04/08 01:30:05;;;;;;;;;;;;;;;19.65;36.40;97301.47;4452998;32;33013;-81
2022/04/08 01:32:33;;;;;;;;;;;;;;;19.52;36.79;97306.53;4452232;32;34089;-81
2022/04/08 01:35:00;;;;;;;;;;;;;;;19.63;36.66;97321.75;4452342;32;34440;-81
2022/04/08 01:37:27;;;;;;;;;;;;;;;19.53;36.89;97323.13;4452672;32;35180;-81
2022/04/08 01:39:55;;;;;;;;;;;;;;;19.50;37.10;97339.91;4453021;32;33713;-81
2022/04/08 01:42:24;;;;;;;;;;;;;;;19.48;37.29;97348.81;4452859;32;34186;-82
2022/04/08 01:44:52;;;;;;;;;;;;;;;19.23;37.93;97350.06;4453458;32;34520;-80
2022/04/08 01:47:20;;;;;;;;;;;;;;;19.39;37.70;97348.34;4468400;32;34007;-82
2022/04/08 01:49:48;;;;;;;;;;;;;;;19.25;38.41;97368.41;4439939;32;33783;-81
2022/04/08 01:52:15;;;;;;;;;;;;;;;19.13;38.78;97367.22;4453000;32;34332;-82
2022/04/08 01:54:42;;;;;;;;;;;;;;;19.30;38.47;97372.47;4452656;32;35303;-81
2022/04/08 01:57:09;;;;;;;;;;;;;;;19.61;38.04;97376.16;4458582;32;34652;-82
2022/04/08 01:59:36;;;;;;;;;;;;;;;19.64;37.90;97371.59;4449582;32;33264;-81
2022/04/08 02:02:05;;;;;;;;;;;;;;;19.76;37.54;97362.22;4452592;32;34917;-81
2022/04/08 02:04:32;;;;;;;;;;;;;;;19.79;37.36;97364.69;4452544;32;34414;-82
2022/04/08 02:07:02;;;;;;;;;;;;;;;19.74;37.43;97365.88;4466199;32;35329;-81
2022/04/08 02:09:29;;;;;;;;;;;;;;;19.78;37.38;97380.56;4457706;32;34375;-82
2022/04/08 02:11:56;;;;;;;;;;;;;;;19.86;37.19;97395.00;4452914;32;33843;-82
2022/04/08 02:14:23;;;;;;;;;;;;;;;19.85;37.30;97411.72;4452591;32;34496;-81
2022/04/08 02:16:51;;;;;;;;;;;;;;;19.78;37.28;97405.06;4455705;32;35146;-82
2022/04/08 02:19:18;;;;;;;;;;;;;;;19.64;37.44;97415.47;4452631;32;33669;-81
2022/04/08 02:21:45;;;;;;;;;;;;;;;19.75;37.12;97417.53;4452831;32;34361;-81
2022/04/08 02:24:13;;;;;;;;;;;;;;;19.75;37.12;97402.59;4452507;32;34442;-82
2022/04/08 02:26:40;;;;;;;;;;;;;;;19.63;37.31;97405.88;4453503;32;32863;-81
2022/04/08 02:29:08;;;;;;;;;;;;;;;19.71;37.24;97402.84;4468138;32;33273;-81
2022/04/08 02:31:35;;;;;;;;;;;;;;;19.44;37.59;97385.75;4467829;32;35244;-81
2022/04/08 02:34:05;;;;;;;;;;;;;;;19.31;37.93;97379.41;4454001;32;35260;-81
2022/04/08 02:36:32;;;;;;;;;;;;;;;19.44;37.51;97382.28;4453217;32;34462;-81
2022/04/08 02:39:00;;;;;;;;;;;;;;;19.48;37.40;97394.34;4452600;32;34413;-81
2022/04/08 02:41:27;;;;;;;;;;;;;;;19.51;37.29;97401.19;4462575;32;34043;-81
2022/04/08 02:43:54;;;;;;;;;;;;;;;19.59;36.91;97406.94;4467824;32;35058;-82
2022/04/08 02:46:22;;;;;;;;;;;;;;;19.56;36.79;97420.22;4468028;32;34121;-82
2022/04/08 02:48:50;;;;;;;;;;;;;;;19.43;36.92;97415.59;4465190;32;34214;-81
2022/04/08 02:51:17;;;;;;;;;;;;;;;18.32;38.72;97434.09;4467664;32;34321;-82
2022/04/08 02:53:44;;;;;;;;;;;;;;;18.69;37.83;97438.50;4463589;32;33221;-81
2022/04/08 02:56:11;;;;;;;;;;;;;;;19.09;37.10;97441.84;4460516;32;35295;-81
2022/04/08 02:58:39;;;;;;;;;;;;;;;19.06;37.24;97449.91;4464325;32;34545;-81
2022/04/08 03:01:06;;;;;;;;;;;;;;;18.21;38.91;97458.19;4452661;32;35080;-81
2022/04/08 03:03:33;;;;;;;;;;;;;;;18.24;38.92;97468.56;4458487;32;34761;-81
2022/04/08 03:06:01;;;;;;;;;;;;;;;18.02;39.35;97488.78;4459093;32;34580;-82
2022/04/08 03:08:28;;;;;;;;;;;;;;;17.82;39.84;97481.81;4467869;32;33708;-82
2022/04/08 03:10:55;;;;;;;;;;;;;;;17.63;40.58;97481.72;4467205;32;34226;-81
2022/04/08 03:13:23;;;;;;;;;;;;;;;18.06;39.47;97485.13;4461000;32;33960;-81
2022/04/08 03:15:51;;;;;;;;;;;;;;;18.34;39.27;97490.00;4452137;32;34236;-81
2022/04/08 03:18:18;;;;;;;;;;;;;;;18.21;39.48;97481.81;4452167;32;34543;-82
2022/04/08 03:20:46;;;;;;;;;;;;;;;17.82;40.22;97487.91;4452427;32;34107;-82
2022/04/08 03:23:13;;;;;;;;;;;;;;;17.02;40.81;97492.94;4455944;32;34389;-82
2022/04/08 03:25:40;;;;;;;;;;;;;;;16.58;41.84;97499.88;4466245;32;34328;-82
2022/04/08 03:28:08;;;;;;;;;;;;;;;16.36;42.13;97505.88;4456897;32;34402;-81
2022/04/08 03:30:36;;;;;;;;;;;;;;;15.58;43.66;97509.50;4452167;32;34265;-80
2022/04/08 03:33:03;;;;;;;;;;;;;;;16.36;42.42;97510.28;4465717;32;34781;-81
2022/04/08 03:35:31;;;;;;;;;;;;;;;14.82;46.57;97517.19;4467705;32;34384;-81
2022/04/08 03:37:58;;;;;;;;;;;;;;;14.55;47.61;97519.72;4467524;32;33505;-81
2022/04/08 03:40:25;;;;;;;;;;;;;;;15.09;46.39;97526.75;4467222;32;34075;-81
2022/04/08 03:42:53;;;;;;;;;;;;;;;14.82;47.44;97535.44;4465602;32;34105;-80
2022/04/08 03:45:20;;;;;;;;;;;;;;;14.29;49.09;97545.66;4451940;32;34261;-82
2022/04/08 03:47:48;;;;;;;;;;;;;;;14.54;49.30;97546.69;4452847;32;31890;-82
2022/04/08 03:50:15;;;;;;;;;;;;;;;14.82;48.01;97548.50;4467680;32;35098;-82
2022/04/08 03:52:43;;;;;;;;;;;;;;;14.68;49.29;97558.47;4466509;32;34517;-81
2022/04/08 03:55:10;;;;;;;;;;;;;;;15.21;47.75;97554.22;4452032;32;35280;-82
2022/04/08 03:57:38;;;;;;;;;;;;;;;15.20;48.03;97562.13;4452005;32;33798;-81
2022/04/08 04:00:05;;;;;;;;;;;;;;;15.50;47.42;97579.41;4451823;32;33552;-81
2022/04/08 04:02:33;;;;;;;;;;;;;;;14.56;50.22;97575.34;4447467;32;35322;-80
2022/04/08 04:05:00;;;;;;;;;;;;;;;14.45;50.84;97575.59;4452479;32;34023;-80
2022/04/08 04:07:28;;;;;;;;;;;;;;;14.35;51.45;97566.31;4455404;32;34390;-82
2022/04/08 04:09:55;;;;;;;;;;;;;;;14.44;51.63;97592.16;4466824;32;34946;-82
2022/04/08 04:12:22;;;;;;;;;;;;;;;15.01;50.32;97573.12;4466312;32;34026;-83
2022/04/08 04:14:50;;;;;;;;;;;;;;;14.60;50.92;97575.19;4465636;32;34204;-82
2022/04/08 04:17:18;;;;;;;;;;;;;;;14.57;50.87;97582.25;4462118;32;32522;-79
2022/04/08 04:19:46;;;;;;;;;;;;;;;13.79;52.22;97581.75;4455741;32;35534;-81
2022/04/08 04:22:14;;;;;;;;;;;;;;;14.59;49.60;97580.47;4451939;32;33279;-82
2022/04/08 04:24:41;;;;;;;;;;;;;;;14.40;49.33;97584.47;4442176;32;35175;-80
2022/04/08 04:27:10;;;;;;;;;;;;;;;14.77;48.27;97585.16;4464376;32;33714;-80
2022/04/08 04:29:37;;;;;;;;;;;;;;;13.56;51.28;97601.41;4455879;32;34968;-82
2022/04/08 04:32:05;;;;;;;;;;;;;;;14.38;49.27;97591.47;4462959;32;35218;-81
2022/04/08 04:34:33;;;;;;;;;;;;;;;14.05;49.84;97600.16;4440634;32;35179;-81
2022/04/08 04:37:00;;;;;;;;;;;;;;;14.38;48.84;97607.13;4459312;32;33368;-83
2022/04/08 04:39:27;;;;;;;;;;;;;;;14.06;48.35;97607.09;4465480;32;34197;-82
2022/04/08 04:41:55;;;;;;;;;;;;;;;15.03;45.55;97607.84;4460545;32;34138;-82
2022/04/08 04:44:24;;;;;;;;;;;;;;;14.71;45.38;97600.97;4449829;32;33865;-82
2022/04/08 04:46:52;;;;;;;;;;;;;;;13.59;47.88;97603.06;4451561;32;33576;-81
2022/04/08 04:49:19;;;;;;;;;;;;;;;14.88;44.36;97599.63;4441302;32;34195;-81
2022/04/08 04:51:47;;;;;;;;;;;;;;;14.92;43.66;97609.91;4461226;32;34551;-79
2022/04/08 04:54:15;;;;;;;;;;;;;;;14.49;42.19;97624.19;4459062;32;34373;-75
2022/04/08 04:56:43;;;;;;;;;;;;;;;14.20;41.77;97640.59;4460572;32;33281;-79
2022/04/08 04:59:11;;;;;;;;;;;;;;;14.41;40.95;97638.31;4454619;32;34086;-88
2022/04/08 05:01:38;;;;;;;;;;;;;;;13.93;41.21;97652.56;4450245;32;34279;-79
2022/04/08 05:04:05;;;;;;;;;;;;;;;14.26;40.47;97655.22;4450088;32;34439;-79
2022/04/08 05:06:34;;;;;;;;;;;;;;;14.19;41.14;97653.66;4457099;32;33777;-82
2022/04/08 05:09:03;;;;;;;;;;;;;;;14.96;39.06;97648.06;4462729;32;33684;-84
2022/04/08 05:11:30;;;;;;;;;;;;;;;14.92;38.27;97656.03;4441562;32;779934;-83
2022/04/08 05:13:59;;;;;;;;;;;;;;;14.34;39.90;97655.88;4466510;32;34842;-82
2022/04/08 05:16:26;;;;;;;;;;;;;;;14.86;38.20;97636.22;4462452;32;33421;-79
2022/04/08 05:18:54;;;;;;;;;;;;;;;14.64;38.61;97648.16;4450965;32;33783;-80
2022/04/08 05:21:21;;;;;;;;;;;;;;;14.91;38.99;97649.97;4436942;32;34044;-80
2022/04/08 05:23:48;;;;;;;;;;;;;;;14.24;39.15;97668.28;4437861;32;34294;-80
2022/04/08 05:26:16;;;;;;;;;;;;;;;14.68;38.52;97662.81;4454232;32;33283;-81
2022/04/08 05:28:43;;;;;;;;;;;;;;;14.58;37.44;97647.44;4466423;32;33773;-78
2022/04/08 05:31:10;;;;;;;;;;;;;;;15.17;36.22;97653.56;4459791;32;35068;-83
2022/04/08 05:33:38;;;;;;;;;;;;;;;15.40;36.14;97663.31;4450643;32;34840;-79
2022/04/08 05:36:05;;;;;;;;;;;;;;;14.78;36.55;97685.16;4459235;32;33251;-80
2022/04/08 05:38:33;;;;;;;;;;;;;;;15.54;34.85;97676.81;4441442;32;34032;-81
2022/04/08 05:41:00;;;;;;;;;;;;;;;16.00;33.33;97675.38;4451013;32;34249;-81
2022/04/08 05:43:27;;;;;;;;;;;;;;;15.44;34.21;97691.06;4465903;32;33998;-80
2022/04/08 05:45:54;;;;;;;;;;;;;;;14.70;36.70;97702.75;4464626;32;34540;-82
2022/04/08 05:48:23;;;;;;;;;;;;;;;14.49;38.59;97705.03;4467439;32;33636;-80
2022/04/08 05:50:50;;;;;;;;;;;;;;;14.09;39.70;97706.03;4468172;32;34403;-81
2022/04/08 05:53:17;;;;;;;;;;;;;;;13.99;38.32;97714.97;4468422;32;35224;-77
2022/04/08 05:56:02;;;;;;;;;;;;;;;14.40;38.61;97707.87;4461429;32;33512;-83
2022/04/08 05:58:29;;;;;;;;;;;;;;;14.20;36.26;97725.75;4452704;32;35049;-82
2022/04/08 06:00:57;;;;;;;;;;;;;;;13.96;37.05;97725.44;4455880;32;33643;-80
2022/04/08 06:03:24;;;;;;;;;;;;;;;14.05;36.33;97738.28;4454925;32;35739;-83
2022/04/08 06:05:53;;;;;;;;;;;;;;;15.11;34.80;97745.09;4439864;32;33702;-85
2022/04/08 06:08:20;;;;;;;;;;;;;;;14.30;35.13;97767.19;4468375;32;34170;-82
2022/04/08 06:10:48;;;;;;;;;;;;;;;15.35;33.68;97767.91;4463625;32;33328;-83
2022/04/08 06:13:16;;;;;;;;;;;;;;;14.76;34.29;97791.28;4468305;32;34384;-81
2022/04/08 06:15:44;;;;;;;;;;;;;;;15.22;33.16;97793.50;4454480;32;34451;-82
2022/04/08 06:18:13;;;;;;;;;;;;;;;14.09;35.07;97799.84;4453562;32;34757;-82
2022/04/08 06:20:40;;;;;;;;;;;;;;;15.32;33.80;97791.50;4452880;32;35080;-82
2022/04/08 06:23:07;;;;;;;;;;;;;;;14.81;33.66;97778.97;4452617;32;34210;-82
2022/04/08 06:25:35;;;;;;;;;;;;;;;15.47;32.98;97767.56;4452443;32;34454;-81
2022/04/08 06:28:03;;;;;;;;;;;;;;;15.85;32.10;97776.03;4452626;32;34369;-82
2022/04/08 06:30:31;;;;;;;;;;;;;;;15.93;31.84;97779.25;4438290;32;33138;-82
2022/04/08 06:32:58;;;;;;;;;;;;;;;16.63;29.90;97777.88;4452874;32;35323;-81
2022/04/08 06:35:25;;;;;;;;;;;;;;;16.20;31.22;97776.69;4438535;32;33516;-82
2022/04/08 06:38:03;;;;;;;;;;;;;;;15.45;32.41;97771.97;4452146;32;34284;-82
2022/04/08 06:40:35;;;;;;;;;;;;;;;15.31;32.93;97779.34;4445065;32;35158;-81
2022/04/08 06:43:02;;;;;;;;;;;;;;;15.85;32.23;97773.44;4468423;32;35245;-83
2022/04/08 06:45:30;;;;;;;;;;;;;;;15.26;32.35;97776.84;4453778;32;34430;-82
2022/04/08 06:47:57;;;;;;;;;;;;;;;15.66;31.95;97786.19;4455194;32;34971;-82
2022/04/08 06:50:25;;;;;;;;;;;;;;;16.35;31.86;97788.41;4452397;32;35361;-82
2022/04/08 06:52:59;;;;;;;;;;;;;;;16.47;31.33;97795.84;4452449;32;34338;-82
2022/04/08 06:55:27;;;;;;;;;;;;;;;16.77;31.13;97775.69;4456344;32;34258;-82
2022/04/08 06:57:56;;;;;;;;;;;;;;;16.48;30.82;97795.81;4467845;32;34514;-82
2022/04/08 07:00:26;;;;;;;;;;;;;;;15.44;32.10;97795.53;4467284;32;34247;-82
2022/04/08 07:02:56;;;;;;;;;;;;;;;15.71;31.68;97788.66;4461745;32;35019;-81
2022/04/08 07:05:25;;;;;;;;;;;;;;;16.45;30.84;97792.44;4455204;32;34140;-81
2022/04/08 07:07:53;;;;;;;;;;;;;;;15.88;31.77;97782.94;4462798;32;35008;-81
2022/04/08 07:10:20;;;;;;;;;;;;;;;15.72;31.84;97785.13;4467650;32;34043;-82
2022/04/08 07:12:48;;;;;;;;;;;;;;;16.02;32.16;97778.13;4459091;32;35301;-81
2022/04/08 07:15:15;;;;;;;;;;;;;;;16.17;31.31;97776.78;4453278;32;33844;-81
2022/04/08 07:17:43;;;;;;;;;;;;;;;15.98;31.54;97800.03;4461669;32;34057;-79
2022/04/08 07:20:16;;;;;;;;;;;;;;;15.84;31.59;97815.28;4438610;32;33837;-82
2022/04/08 07:22:45;;;;;;;;;;;;;;;16.90;30.46;97826.72;4452343;32;34183;-81
2022/04/08 07:25:12;;;;;;;;;;;;;;;16.72;30.11;97804.59;4448582;32;33014;-81
2022/04/08 07:27:48;;;;;;;;;;;;;;;16.57;30.66;97797.28;4467895;32;33867;-83
2022/04/08 07:30:17;;;;;;;;;;;;;;;16.40;30.99;97804.81;4464718;32;33861;-83
2022/04/08 07:32:46;;;;;;;;;;;;;;;17.30;30.83;97808.75;4466194;32;34783;-82
2022/04/08 07:35:13;;;;;;;;;;;;;;;17.19;30.52;97817.00;4460343;32;33346;-82
2022/04/08 07:37:41;;;;;;;;;;;;;;;17.00;30.01;97807.16;4437931;32;34174;-83
2022/04/08 07:40:09;;;;;;;;;;;;;;;16.32;30.05;97823.38;4466554;32;33801;-82
2022/04/08 07:42:36;;;;;;;;;;;;;;;16.61;30.32;97818.97;4453592;32;34492;-81
2022/04/08 07:45:04;;;;;;;;;;;;;;;16.90;29.13;97829.34;4460111;32;34002;-82
2022/04/08 07:47:32;;;;;;;;;;;;;;;17.76;28.13;97834.16;4452407;32;34564;-82
2022/04/08 07:49:59;;;;;;;;;;;;;;;16.32;29.66;97820.75;4458540;32;34512;-81
2022/04/08 07:52:27;;;;;;;;;;;;;;;16.18;29.98;97813.34;4467533;32;34624;-85
2022/04/08 07:54:54;;;;;;;;;;;;;;;16.65;29.94;97805.72;4453642;32;34309;-85
2022/04/08 07:57:22;;;;;;;;;;;;;;;16.27;28.98;97788.66;4449600;32;34301;-87
2022/04/08 07:59:49;;;;;;;;;;;;;;;16.04;28.86;97789.41;4464738;32;35079;-82
2022/04/08 08:02:16;;;;;;;;;;;;;;;16.26;27.92;97803.50;4480975;32;34578;-76
2022/04/08 08:04:49;;;;;;;;;;;;;;;15.73;28.58;97777.28;4467325;32;33534;-80
2022/04/08 08:07:17;;;;;;;;;;;;;;;15.92;27.86;97792.41;4463396;32;35092;-81
2022/04/08 08:09:44;;;;;;;;;;;;;;;15.30;28.81;97788.94;4467363;32;34208;-82
2022/04/08 08:12:21;;;;;;;;;;;;;;;15.62;28.27;97801.97;4460324;32;34627;-81
2022/04/08 08:14:49;;;;;;;;;;;;;;;15.59;27.50;97813.34;4457512;32;33586;-83
2022/04/08 08:17:16;;;;;;;;;;;;;;;15.64;28.20;97810.59;4467461;32;35098;-81
2022/04/08 08:19:43;;;;;;;;;;;;;;;16.04;26.63;97833.84;4458671;32;34199;-81
2022/04/08 08:22:11;;;;;;;;;;;;;;;16.23;26.76;97840.22;4461475;32;34408;-82
2022/04/08 08:24:38;;;;;;;;;;;;;;;15.90;27.57;97855.16;4467235;32;33556;-82
2022/04/08 08:27:06;;;;;;;;;;;;;;;16.94;26.03;97851.03;4467232;32;33781;-81
2022/04/08 08:29:33;;;;;;;;;;;;;;;16.83;26.31;97881.97;4463112;32;35023;-81
2022/04/08 08:32:01;;;;;;;;;;;;;;;16.39;27.14;97877.19;4467182;32;34381;-82
2022/04/08 08:34:29;;;;;;;;;;;;;;;15.40;27.82;97886.16;4461673;32;33752;-82
2022/04/08 08:36:59;;;;;;;;;;;;;;;15.76;27.73;97886.94;4451526;32;34237;-80
2022/04/08 08:39:27;;;;;;;;;;;;;;;16.52;26.99;97880.31;4473233;32;35303;-75
2022/04/08 08:41:55;;;;;;;;;;;;;;;16.48;26.49;97882.16;4463037;32;34151;-82
2022/04/08 08:44:23;;;;;;;;;;;;;;;16.01;26.87;97883.59;4466062;32;33795;-81
2022/04/08 08:46:50;;;;;;;;;;;;;;;16.50;26.47;97887.31;4459063;32;34788;-81
2022/04/08 08:49:19;;;;;;;;;;;;;;;16.88;26.64;97896.59;4450950;32;34181;-81
2022/04/08 08:51:50;;;;;;;;;;;;;;;16.45;27.17;97892.72;4452034;32;34464;-81
2022/04/08 08:54:17;;;;;;;;;;;;;;;16.72;27.47;97903.19;4449302;32;34924;-79
2022/04/08 08:56:44;;;;;;;;;;;;;;;17.33;26.18;97903.81;4458893;32;34818;-82
2022/04/08 08:59:12;;;;;;;;;;;;;;;17.54;26.13;97902.22;4467025;32;34168;-80
2022/04/08 09:01:43;;;;;;;;;;;;;;;17.59;25.86;97905.50;4451536;32;35052;-80
2022/04/08 09:04:11;;;;;;;;;;;;;;;17.96;26.13;97893.72;4465451;32;34473;-81
2022/04/08 09:06:41;;;;;;;;;;;;;;;17.05;26.69;97905.63;4465916;32;33982;-81
2022/04/08 09:09:11;;;;;;;;;;;;;;;17.30;26.15;97901.28;4465628;32;34255;-80
2022/04/08 09:11:38;;;;;;;;;;;;;;;17.69;25.47;97909.53;4465483;32;34161;-80
2022/04/08 09:14:06;;;;;;;;;;;;;;;17.04;26.37;97912.63;4465795;32;34552;-75
2022/04/08 09:16:37;;;;;;;;;;;;;;;16.51;26.03;97900.34;4466563;32;35158;-87
2022/04/08 09:19:11;;;;;;;;;;;;;;;17.77;24.85;97914.53;4474214;32;34253;-81
2022/04/08 09:21:38;;;;;;;;;;;;;;;17.17;25.31;97911.34;4465874;32;34279;-80
2022/04/08 09:24:06;;;;;;;;;;;;;;;16.98;25.69;97918.94;4467753;32;33232;-80
2022/04/08 09:26:34;;;;;;;;;;;;;;;17.96;24.20;97938.31;4468200;32;34821;-80
2022/04/08 09:29:01;;;;;;;;;;;;;;;17.39;24.92;97935.03;4467961;32;34487;-84
2022/04/08 09:31:28;;;;;;;;;;;;;;;17.69;24.99;97946.22;4466527;32;34301;-87
2022/04/08 09:33:56;;;;;;;;;;;;;;;18.31;23.04;97941.38;4467457;32;33707;-80
2022/04/08 09:36:27;;;;;;;;;;;;;;;17.75;22.74;97947.78;4453882;32;33965;-88
2022/04/08 09:38:54;;;;;;;;;;;;;;;17.86;23.95;97940.38;4467666;32;34452;-83
2022/04/08 09:41:25;;;;;;;;;;;;;;;18.32;22.64;97933.44;4458995;32;34467;-79
2022/04/08 09:43:53;;;;;;;;;;;;;;;18.98;21.84;97943.13;4450981;32;33498;-80
2022/04/08 09:46:21;;;;;;;;;;;;;;;18.72;22.61;97942.44;4459474;32;34286;-79
2022/04/08 09:48:49;;;;;;;;;;;;;;;18.40;23.14;97933.13;4481873;32;35211;-80
2022/04/08 09:51:20;;;;;;;;;;;;;;;18.52;22.71;97916.06;4483467;32;34322;-80
2022/04/08 09:53:55;;;;;;;;;;;;;;;18.35;23.22;97938.56;4471637;32;33462;-83
2022/04/08 09:56:23;;;;;;;;;;;;;;;19.43;22.66;97938.62;4467817;32;34852;-81
2022/04/08 09:59:11;;;;;;;;;;;;;;;18.90;22.99;97936.44;4467655;32;34989;-82
2022/04/08 10:01:39;;;;;;;;;;;;;;;19.14;22.99;97934.56;4449061;32;34088;-84
2022/04/08 10:04:07;;;;;;;;;;;;;;;19.87;21.73;97942.87;4437977;32;33417;-86
2022/04/08 10:06:35;;;;;;;;;;;;;;;19.30;21.97;97944.44;4437848;32;33688;-76
2022/04/08 10:09:02;;;;;;;;;;;;;;;19.65;21.97;97949.06;4457072;32;35347;-82
2022/04/08 10:11:33;;;;;;;;;;;;;;;18.81;22.12;97947.31;4466474;32;35080;-78
2022/04/08 10:14:13;;;;;;;;;;;;;;;19.17;22.93;97952.00;4463201;32;33079;-86
2022/04/08 10:16:40;;;;;;;;;;;;;;;19.28;22.81;97947.16;4467331;32;34138;-86
2022/04/08 10:19:08;;;;;;;;;;;;;;;19.95;22.28;97950.44;4466769;32;35324;-80
2022/04/08 10:21:36;;;;;;;;;;;;;;;20.64;21.28;97956.03;4467445;32;35367;-86
2022/04/08 10:24:07;;;;;;;;;;;;;;;19.85;22.26;97961.38;4458330;32;34531;-86
2022/04/08 10:26:34;;;;;;;;;;;;;;;20.23;21.18;97955.28;4467472;32;35019;-80
2022/04/08 10:29:08;;;;;;;;;;;;;;;20.00;21.33;97964.22;4453446;32;35227;-82
2022/04/08 10:31:36;;;;;;;;;;;;;;;20.23;20.96;97957.94;4482443;32;34360;-82
2022/04/08 10:34:04;;;;;;;;;;;;;;;19.87;22.32;97959.50;4461172;32;33412;-80
2022/04/08 10:36:31;;;;;;;;;;;;;;;19.98;21.72;97958.19;4438075;32;35115;-87
2022/04/08 10:39:12;;;;;;;;;;;;;;;19.96;22.27;97955.63;4460217;32;34567;-82
2022/04/08 10:41:49;;;;;;;;;;;;;;;19.42;23.13;97965.78;4465860;32;34310;-81
2022/04/08 10:44:28;;;;;;;;;;;;;;;20.46;20.88;97949.84;4453182;32;33751;-79
2022/04/08 10:46:56;;;;;;;;;;;;;;;19.72;22.32;97964.59;4452217;32;33925;-80
2022/04/08 10:49:24;;;;;;;;;;;;;;;19.89;21.99;97947.16;4452157;32;35422;-81
2022/04/08 10:51:51;;;;;;;;;;;;;;;19.69;21.17;97953.28;4450617;32;33305;-75
2022/04/08 10:54:19;;;;;;;;;;;;;;;19.12;21.87;97961.81;4457245;32;33457;-83
2022/04/08 10:56:57;;;;;;;;;;;;;;;19.25;22.89;97951.69;4451977;32;34239;-86
2022/04/08 10:59:26;;;;;;;;;;;;;;;19.23;22.10;97962.22;4451925;32;35257;-87
2022/04/08 11:02:02;;;;;;;;;;;;;;;19.38;22.60;97953.72;4451683;32;35205;-83
2022/04/08 11:04:30;;;;;;;;;;;;;;;18.95;22.54;97955.50;4451820;32;33353;-87
2022/04/08 11:07:03;;;;;;;;;;;;;;;18.28;24.03;97963.31;4451844;32;34862;-84
2022/04/08 11:09:30;;;;;;;;;;;;;;;19.99;21.42;97959.91;4451369;32;35306;-86
2022/04/08 11:11:58;;;;;;;;;;;;;;;19.89;22.28;97964.72;4458698;32;34300;-80
2022/04/08 11:14:26;;;;;;;;;;;;;;;19.65;22.24;97956.09;4467317;32;33754;-79
2022/04/08 11:16:53;;;;;;;;;;;;;;;19.97;22.47;97956.50;4454140;32;34889;-81
2022/04/08 11:19:22;;;;;;;;;;;;;;;19.13;24.03;97974.91;4452776;32;34390;-88
2022/04/08 11:21:55;;;;;;;;;;;;;;;18.62;24.11;97975.16;4467213;32;34053;-86
2022/04/08 11:24:23;;;;;;;;;;;;;;;18.74;24.76;97972.09;4456034;32;32511;-81
2022/04/08 11:26:51;;;;;;;;;;;;;;;20.58;21.93;97972.16;4461970;32;33510;-80
2022/04/08 11:29:19;;;;;;;;;;;;;;;21.46;21.88;97969.62;4460984;32;34259;-89
2022/04/08 11:31:47;;;;;;;;;;;;;;;20.04;23.37;97968.44;4463935;32;34498;-84
2022/04/08 11:34:15;;;;;;;;;;;;;;;19.74;23.99;97970.66;4457645;32;33139;-81
2022/04/08 11:36:42;;;;;;;;;;;;;;;19.58;24.83;97986.19;4451838;32;34691;-79
2022/04/08 11:39:10;;;;;;;;;;;;;;;19.66;23.71;97973.59;4460938;32;34310;-80
2022/04/08 11:41:38;;;;;;;;;;;;;;;19.54;24.08;97979.34;4452252;32;34311;-80
2022/04/08 11:44:05;;;;;;;;;;;;;;;20.71;23.47;97965.37;4455582;32;33749;-81
2022/04/08 11:46:32;;;;;;;;;;;;;;;20.58;23.60;97969.50;4480354;32;34981;-80
2022/04/08 11:49:02;;;;;;;;;;;;;;;21.07;23.22;97961.91;4465096;32;34500;-79
2022/04/08 11:51:29;;;;;;;;;;;;;;;20.38;23.75;97963.38;4451163;32;34604;-83
2022/04/08 11:54:00;;;;;;;;;;;;;;;21.05;23.81;97961.09;4456625;32;32956;-81
2022/04/08 11:56:27;;;;;;;;;;;;;;;19.24;25.14;97966.56;4446775;32;35177;-87
2022/04/08 11:59:04;;;;;;;;;;;;;;;18.61;26.62;97971.69;4456229;32;34376;-88
2022/04/08 12:01:32;;;;;;;;;;;;;;;20.08;25.68;97959.50;4457663;32;34474;-88
2022/04/08 12:04:01;;;;;;;;;;;;;;;20.08;26.02;97968.25;4466572;32;33574;-89
2022/04/08 12:06:40;;;;;;;;;;;;;;;20.32;25.49;97976.78;4448120;32;34967;-88
2022/04/08 12:09:15;;;;;;;;;;;;;;;20.92;25.19;97947.69;4460291;32;34006;-88
2022/04/08 12:11:43;;;;;;;;;;;;;;;19.97;25.68;97949.44;4451000;32;35052;-88
2022/04/08 12:14:19;;;;;;;;;;;;;;;19.15;27.00;97952.03;4466512;32;33723;-89
2022/04/08 12:16:48;;;;;;;;;;;;;;;20.41;26.13;97939.50;4464679;32;34334;-88
2022/04/08 12:19:18;;;;;;;;;;;;;;;21.09;24.92;97926.63;4466164;32;34239;-89
2022/04/08 12:22:01;;;;;;;;;;;;;;;21.61;24.82;97925.81;4466418;32;34598;-87
2022/04/08 12:24:29;;;;;;;;;;;;;;;21.68;24.84;97915.81;4452439;32;33333;-89
2022/04/08 12:26:56;;;;;;;;;;;;;;;21.49;24.66;97908.00;4466234;32;33699;-80
2022/04/08 12:29:27;;;;;;;;;;;;;;;21.70;24.47;97906.00;4466027;32;33960;-88
2022/04/08 12:31:55;;;;;;;;;;;;;;;21.83;25.10;97905.28;4466129;32;34674;-81
2022/04/08 12:34:23;;;;;;;;;;;;;;;19.63;27.11;97915.91;4463941;32;33256;-81
2022/04/08 12:36:50;;;;;;;;;;;;;;;20.12;28.58;97913.72;4450586;32;33854;-84
2022/04/08 12:39:18;;;;;;;;;;;;;;;21.32;25.50;97901.75;4437718;32;34555;-87
2022/04/08 12:41:46;;;;;;;;;;;;;;;21.33;25.90;97895.59;4466206;32;35423;-81
2022/04/08 12:44:13;;;;;;;;;;;;;;;19.81;27.70;97893.16;4451737;32;33478;-84
2022/04/08 12:46:41;;;;;;;;;;;;;;;21.21;26.06;97875.06;4451450;32;34014;-84
2022/04/08 12:49:08;;;;;;;;;;;;;;;21.45;25.56;97857.19;4466434;32;35178;-83
2022/04/08 12:51:35;;;;;;;;;;;;;;;21.99;24.98;97863.09;4463885;32;34437;-89
2022/04/08 12:54:03;;;;;;;;;;;;;;;22.19;24.36;97877.88;4442469;32;33352;-89